sensor_id;sensor_type;location;lat;lon;timestamp;pressure;altitude;pressure_sealevel;temperature;humidity
34586;BME280;20816;50.950;11.108;2022-07-29T00:01:50;98545.66;;;17.41;69.86
34586;BME280;20816;50.950;11.108;2022-07-29T00:04:19;98543.38;;;17.33;69.34
34586;BME280;20816;50.950;11.108;2022-07-29T00:06:47;98536.22;;;17.35;69.44
34586;BME280;20816;50.950;11.108;2022-07-29T00:09:13;98538.47;;;17.43;69.23
34586;BME280;20816;50.950;11.108;2022-07-29T00:11:40;98533.88;;;17.46;69.18
34586;BME280;20816;50.950;11.108;2022-07-29T00:14:07;98531.13;;;17.48;69.38
34586;BME280;20816;50.950;11.108;2022-07-29T00:16:34;98524.19;;;17.45;69.58
34586;BME280;20816;50.950;11.108;2022-07-29T00:19:02;98518.88;;;17.45;69.15
34586;BME280;20816;50.950;11.108;2022-07-29T00:21:28;98521.66;;;17.42;69.02
34586;BME280;20816;50.950;11.108;2022-07-29T00:23:55;98519.41;;;17.34;69.31
34586;BME280;20816;50.950;11.108;2022-07-29T00:26:22;98508.53;;;17.22;70.28
34586;BME280;20816;50.950;11.108;2022-07-29T00:28:48;98516.59;;;17.20;70.08
34586;BME280;20816;50.950;11.108;2022-07-29T00:31:15;98513.13;;;17.18;70.16
34586;BME280;20816;50.950;11.108;2022-07-29T00:33:41;98511.19;;;17.22;70.41
34586;BME280;20816;50.950;11.108;2022-07-29T00:36:08;98507.69;;;17.21;71.02
34586;BME280;20816;50.950;11.108;2022-07-29T00:38:35;98506.06;;;17.19;71.05
34586;BME280;20816;50.950;11.108;2022-07-29T00:41:01;98501.91;;;17.13;70.84
34586;BME280;20816;50.950;11.108;2022-07-29T00:43:28;98497.66;;;17.09;70.66
34586;BME280;20816;50.950;11.108;2022-07-29T00:45:55;98497.13;;;17.02;71.08
34586;BME280;20816;50.950;11.108;2022-07-29T00:48:21;98494.69;;;16.98;72.00
34586;BME280;20816;50.950;11.108;2022-07-29T00:50:49;98493.84;;;16.97;72.08
34586;BME280;20816;50.950;11.108;2022-07-29T00:53:16;98498.41;;;16.94;72.35
34586;BME280;20816;50.950;11.108;2022-07-29T00:55:43;98495.19;;;16.70;73.28
34586;BME280;20816;50.950;11.108;2022-07-29T00:58:12;98497.09;;;16.47;74.02
34586;BME280;20816;50.950;11.108;2022-07-29T01:00:41;98498.16;;;16.43;74.36
34586;BME280;20816;50.950;11.108;2022-07-29T01:03:10;98507.81;;;16.46;73.78
34586;BME280;20816;50.950;11.108;2022-07-29T01:05:39;98491.03;;;16.45;73.57
34586;BME280;20816;50.950;11.108;2022-07-29T01:08:17;98494.53;;;16.46;73.64
34586;BME280;20816;50.950;11.108;2022-07-29T01:10:45;98483.75;;;16.49;72.80
34586;BME280;20816;50.950;11.108;2022-07-29T01:13:13;98483.41;;;16.57;72.33
34586;BME280;20816;50.950;11.108;2022-07-29T01:15:50;98474.28;;;16.62;72.31
34586;BME280;20816;50.950;11.108;2022-07-29T01:18:24;98477.53;;;16.69;71.59
34586;BME280;20816;50.950;11.108;2022-07-29T01:26:47;98472.38;;;16.47;72.90
34586;BME280;20816;50.950;11.108;2022-07-29T01:29:21;98477.25;;;16.37;74.23
34586;BME280;20816;50.950;11.108;2022-07-29T01:32:18;98466.94;;;16.31;74.65
34586;BME280;20816;50.950;11.108;2022-07-29T01:34:56;98467.06;;;16.28;74.96
34586;BME280;20816;50.950;11.108;2022-07-29T01:40:43;98453.88;;;16.26;75.20
34586;BME280;20816;50.950;11.108;2022-07-29T01:43:14;98463.91;;;16.20;75.51
34586;BME280;20816;50.950;11.108;2022-07-29T01:45:48;98458.47;;;16.23;75.41
34586;BME280;20816;50.950;11.108;2022-07-29T01:48:27;98457.53;;;16.24;75.54
34586;BME280;20816;50.950;11.108;2022-07-29T01:51:18;98462.06;;;16.22;75.34
34586;BME280;20816;50.950;11.108;2022-07-29T01:54:05;98453.94;;;16.25;75.35
34586;BME280;20816;50.950;11.108;2022-07-29T01:56:34;98443.34;;;16.25;75.07
34586;BME280;20816;50.950;11.108;2022-07-29T01:59:04;98452.94;;;16.27;75.42
34586;BME280;20816;50.950;11.108;2022-07-29T02:01:33;98444.94;;;16.29;75.53
34586;BME280;20816;50.950;11.108;2022-07-29T02:04:06;98455.31;;;16.34;75.13
34586;BME280;20816;50.950;11.108;2022-07-29T02:06:34;98453.50;;;16.34;74.98
34586;BME280;20816;50.950;11.108;2022-07-29T02:09:03;98453.00;;;16.26;74.88
34586;BME280;20816;50.950;11.108;2022-07-29T02:11:34;98454.22;;;16.19;75.53
34586;BME280;20816;50.950;11.108;2022-07-29T02:14:03;98458.91;;;16.14;74.99
34586;BME280;20816;50.950;11.108;2022-07-29T02:16:31;98468.34;;;16.01;75.66
34586;BME280;20816;50.950;11.108;2022-07-29T02:19:01;98466.28;;;15.88;76.27
34586;BME280;20816;50.950;11.108;2022-07-29T02:21:29;98464.09;;;15.78;77.06
34586;BME280;20816;50.950;11.108;2022-07-29T02:24:01;98454.13;;;15.64;77.63
34586;BME280;20816;50.950;11.108;2022-07-29T02:26:29;98450.25;;;15.71;77.47
34586;BME280;20816;50.950;11.108;2022-07-29T02:28:59;98449.84;;;15.80;77.32
34586;BME280;20816;50.950;11.108;2022-07-29T02:31:30;98444.25;;;15.86;76.59
34586;BME280;20816;50.950;11.108;2022-07-29T02:34:00;98451.28;;;15.87;76.99
34586;BME280;20816;50.950;11.108;2022-07-29T02:36:29;98438.09;;;15.86;75.84
34586;BME280;20816;50.950;11.108;2022-07-29T02:38:58;98428.22;;;15.89;75.49
34586;BME280;20816;50.950;11.108;2022-07-29T02:41:43;98433.22;;;15.95;75.89
34586;BME280;20816;50.950;11.108;2022-07-29T02:44:14;98443.78;;;15.97;75.96
34586;BME280;20816;50.950;11.108;2022-07-29T02:46:53;98441.69;;;16.04;75.85
34586;BME280;20816;50.950;11.108;2022-07-29T02:49:42;98431.22;;;16.01;75.54
34586;BME280;20816;50.950;11.108;2022-07-29T02:52:27;98438.69;;;15.92;76.30
34586;BME280;20816;50.950;11.108;2022-07-29T02:55:00;98444.69;;;15.77;77.84
34586;BME280;20816;50.950;11.108;2022-07-29T02:57:41;98440.91;;;15.62;78.85
34586;BME280;20816;50.950;11.108;2022-07-29T03:00:21;98443.66;;;15.61;78.62
34586;BME280;20816;50.950;11.108;2022-07-29T03:02:52;98435.69;;;15.61;78.61
34586;BME280;20816;50.950;11.108;2022-07-29T03:05:20;98438.09;;;15.67;77.97
34586;BME280;20816;50.950;11.108;2022-07-29T03:08:09;98430.31;;;15.62;78.09
34586;BME280;20816;50.950;11.108;2022-07-29T03:10:37;98442.81;;;15.59;78.29
34586;BME280;20816;50.950;11.108;2022-07-29T03:13:05;98441.22;;;15.55;78.54
34586;BME280;20816;50.950;11.108;2022-07-29T03:15:34;98442.47;;;15.48;78.97
34586;BME280;20816;50.950;11.108;2022-07-29T03:18:01;98445.09;;;15.48;78.91
34586;BME280;20816;50.950;11.108;2022-07-29T03:20:28;98440.84;;;15.43;79.21
34586;BME280;20816;50.950;11.108;2022-07-29T03:22:55;98438.28;;;15.42;79.30
34586;BME280;20816;50.950;11.108;2022-07-29T03:25:22;98433.06;;;15.40;79.46
34586;BME280;20816;50.950;11.108;2022-07-29T03:27:48;98434.00;;;15.39;79.99
34586;BME280;20816;50.950;11.108;2022-07-29T03:30:15;98435.56;;;15.43;79.26
34586;BME280;20816;50.950;11.108;2022-07-29T03:32:48;98439.41;;;15.36;79.49
34586;BME280;20816;50.950;11.108;2022-07-29T03:35:18;98439.88;;;15.26;80.39
34586;BME280;20816;50.950;11.108;2022-07-29T03:37:45;98441.78;;;15.22;80.89
34586;BME280;20816;50.950;11.108;2022-07-29T03:40:18;98443.53;;;15.23;81.46
34586;BME280;20816;50.950;11.108;2022-07-29T03:42:46;98436.38;;;15.25;81.02
34586;BME280;20816;50.950;11.108;2022-07-29T03:45:17;98439.41;;;15.36;80.18
34586;BME280;20816;50.950;11.108;2022-07-29T03:47:50;98445.09;;;15.27;80.92
34586;BME280;20816;50.950;11.108;2022-07-29T03:50:25;98444.31;;;15.25;81.13
34586;BME280;20816;50.950;11.108;2022-07-29T03:52:52;98440.06;;;15.21;81.03
34586;BME280;20816;50.950;11.108;2022-07-29T03:55:19;98433.72;;;15.25;81.66
34586;BME280;20816;50.950;11.108;2022-07-29T03:57:46;98435.97;;;15.34;81.34
34586;BME280;20816;50.950;11.108;2022-07-29T04:00:15;98432.13;;;15.41;80.46
34586;BME280;20816;50.950;11.108;2022-07-29T04:02:43;98444.03;;;15.52;80.69
34586;BME280;20816;50.950;11.108;2022-07-29T04:05:16;98437.69;;;15.56;80.44
34586;BME280;20816;50.950;11.108;2022-07-29T04:07:44;98438.34;;;15.61;80.51
34586;BME280;20816;50.950;11.108;2022-07-29T04:10:11;98439.38;;;15.77;80.04
34586;BME280;20816;50.950;11.108;2022-07-29T04:12:38;98437.97;;;15.89;78.86
34586;BME280;20816;50.950;11.108;2022-07-29T04:15:05;98443.03;;;15.93;78.71
34586;BME280;20816;50.950;11.108;2022-07-29T04:17:32;98442.84;;;15.98;78.28
34586;BME280;20816;50.950;11.108;2022-07-29T04:19:59;98440.97;;;16.00;78.69
34586;BME280;20816;50.950;11.108;2022-07-29T04:22:25;98445.56;;;15.96;79.29
34586;BME280;20816;50.950;11.108;2022-07-29T04:24:52;98443.97;;;15.92;79.95
34586;BME280;20816;50.950;11.108;2022-07-29T04:27:19;98451.00;;;15.93;80.06
34586;BME280;20816;50.950;11.108;2022-07-29T04:29:46;98450.94;;;15.95;79.51
34586;BME280;20816;50.950;11.108;2022-07-29T04:32:22;98444.13;;;15.89;79.54
34586;BME280;20816;50.950;11.108;2022-07-29T04:34:49;98444.50;;;16.01;78.18
34586;BME280;20816;50.950;11.108;2022-07-29T04:37:15;98440.63;;;16.08;77.74
34586;BME280;20816;50.950;11.108;2022-07-29T04:39:42;98437.69;;;16.14;77.68
34586;BME280;20816;50.950;11.108;2022-07-29T04:42:08;98439.13;;;16.21;76.75
34586;BME280;20816;50.950;11.108;2022-07-29T04:44:35;98433.50;;;16.27;77.08
34586;BME280;20816;50.950;11.108;2022-07-29T04:47:07;98424.34;;;16.34;76.44
34586;BME280;20816;50.950;11.108;2022-07-29T04:49:34;98422.53;;;16.35;76.36
34586;BME280;20816;50.950;11.108;2022-07-29T04:52:00;98424.34;;;16.34;76.53
34586;BME280;20816;50.950;11.108;2022-07-29T04:54:27;98420.28;;;16.44;76.42
34586;BME280;20816;50.950;11.108;2022-07-29T04:56:53;98414.50;;;16.36;77.00
34586;BME280;20816;50.950;11.108;2022-07-29T04:59:20;98429.34;;;16.40;76.86
34586;BME280;20816;50.950;11.108;2022-07-29T05:01:47;98430.06;;;16.44;77.09
34586;BME280;20816;50.950;11.108;2022-07-29T05:04:13;98437.06;;;16.45;76.62
34586;BME280;20816;50.950;11.108;2022-07-29T05:06:40;98430.34;;;16.57;76.41
34586;BME280;20816;50.950;11.108;2022-07-29T05:09:07;98433.69;;;16.60;76.84
34586;BME280;20816;50.950;11.108;2022-07-29T05:11:33;98443.00;;;16.69;76.95
34586;BME280;20816;50.950;11.108;2022-07-29T05:14:00;98446.16;;;16.77;76.04
34586;BME280;20816;50.950;11.108;2022-07-29T05:16:26;98444.53;;;16.74;76.57
34586;BME280;20816;50.950;11.108;2022-07-29T05:18:54;98450.47;;;16.79;77.04
34586;BME280;20816;50.950;11.108;2022-07-29T05:21:20;98453.53;;;16.89;76.79
34586;BME280;20816;50.950;11.108;2022-07-29T05:23:47;98443.38;;;16.97;76.29
34586;BME280;20816;50.950;11.108;2022-07-29T05:26:13;98446.34;;;17.08;76.17
34586;BME280;20816;50.950;11.108;2022-07-29T05:28:40;98439.72;;;17.17;76.01
34586;BME280;20816;50.950;11.108;2022-07-29T05:31:07;98446.59;;;17.21;75.57
34586;BME280;20816;50.950;11.108;2022-07-29T05:33:33;98440.50;;;17.19;75.11
34586;BME280;20816;50.950;11.108;2022-07-29T05:36:04;98439.38;;;17.41;74.64
34586;BME280;20816;50.950;11.108;2022-07-29T05:38:34;98439.31;;;17.59;73.66
34586;BME280;20816;50.950;11.108;2022-07-29T05:41:02;98441.78;;;17.80;73.70
34586;BME280;20816;50.950;11.108;2022-07-29T05:43:29;98452.97;;;18.02;72.42
34586;BME280;20816;50.950;11.108;2022-07-29T05:45:56;98456.78;;;18.61;70.87
34586;BME280;20816;50.950;11.108;2022-07-29T05:48:24;98457.63;;;18.93;69.76
34586;BME280;20816;50.950;11.108;2022-07-29T05:50:51;98453.19;;;19.38;68.40
34586;BME280;20816;50.950;11.108;2022-07-29T05:53:17;98449.94;;;19.77;66.47
34586;BME280;20816;50.950;11.108;2022-07-29T05:55:47;98441.75;;;20.23;64.99
34586;BME280;20816;50.950;11.108;2022-07-29T05:58:14;98440.56;;;20.56;63.73
34586;BME280;20816;50.950;11.108;2022-07-29T06:00:41;98451.22;;;20.70;63.04
34586;BME280;20816;50.950;11.108;2022-07-29T06:03:07;98449.00;;;21.16;62.41
34586;BME280;20816;50.950;11.108;2022-07-29T06:05:34;98451.22;;;21.49;61.38
34586;BME280;20816;50.950;11.108;2022-07-29T06:08:01;98440.34;;;21.78;61.06
34586;BME280;20816;50.950;11.108;2022-07-29T06:10:27;98449.44;;;22.14;60.12
34586;BME280;20816;50.950;11.108;2022-07-29T06:12:54;98442.84;;;22.43;59.00
34586;BME280;20816;50.950;11.108;2022-07-29T06:15:21;98441.53;;;22.49;57.97
34586;BME280;20816;50.950;11.108;2022-07-29T06:17:47;98429.53;;;22.78;57.29
34586;BME280;20816;50.950;11.108;2022-07-29T06:20:27;98435.44;;;22.71;57.64
34586;BME280;20816;50.950;11.108;2022-07-29T06:22:56;98426.84;;;22.78;57.98
34586;BME280;20816;50.950;11.108;2022-07-29T06:25:23;98429.41;;;22.80;57.08
34586;BME280;20816;50.950;11.108;2022-07-29T06:27:50;98439.50;;;22.89;57.04
34586;BME280;20816;50.950;11.108;2022-07-29T06:30:16;98440.06;;;23.05;57.35
34586;BME280;20816;50.950;11.108;2022-07-29T06:32:43;98447.41;;;23.14;57.14
34586;BME280;20816;50.950;11.108;2022-07-29T06:35:10;98446.28;;;23.52;56.45
34586;BME280;20816;50.950;11.108;2022-07-29T06:37:56;98438.91;;;23.67;55.21
34586;BME280;20816;50.950;11.108;2022-07-29T06:40:25;98433.47;;;24.13;54.83
34586;BME280;20816;50.950;11.108;2022-07-29T06:43:10;98433.94;;;24.07;53.84
34586;BME280;20816;50.950;11.108;2022-07-29T06:45:37;98442.00;;;24.29;54.19
34586;BME280;20816;50.950;11.108;2022-07-29T06:48:08;98435.19;;;24.37;54.06
34586;BME280;20816;50.950;11.108;2022-07-29T06:50:35;98442.84;;;23.85;54.32
34586;BME280;20816;50.950;11.108;2022-07-29T06:53:02;98439.56;;;24.49;53.15
34586;BME280;20816;50.950;11.108;2022-07-29T06:55:29;98439.25;;;24.74;52.63
34586;BME280;20816;50.950;11.108;2022-07-29T06:57:55;98441.56;;;25.22;52.09
34586;BME280;20816;50.950;11.108;2022-07-29T07:00:22;98439.84;;;25.21;52.24
34586;BME280;20816;50.950;11.108;2022-07-29T07:02:48;98437.16;;;25.74;51.31
34586;BME280;20816;50.950;11.108;2022-07-29T07:05:15;98442.22;;;25.56;51.33
34586;BME280;20816;50.950;11.108;2022-07-29T07:07:41;98439.19;;;24.97;51.26
34586;BME280;20816;50.950;11.108;2022-07-29T07:10:08;98430.34;;;25.17;51.79
34586;BME280;20816;50.950;11.108;2022-07-29T07:12:35;98431.38;;;24.94;52.50
34586;BME280;20816;50.950;11.108;2022-07-29T07:15:01;98433.78;;;25.08;52.65
34586;BME280;20816;50.950;11.108;2022-07-29T07:17:29;98435.00;;;25.57;52.12
34586;BME280;20816;50.950;11.108;2022-07-29T07:19:55;98430.56;;;25.67;51.71
34586;BME280;20816;50.950;11.108;2022-07-29T07:22:22;98433.84;;;25.91;50.98
34586;BME280;20816;50.950;11.108;2022-07-29T07:24:48;98421.81;;;25.54;51.11
34586;BME280;20816;50.950;11.108;2022-07-29T07:27:15;98428.66;;;25.79;51.27
34586;BME280;20816;50.950;11.108;2022-07-29T07:29:42;98424.78;;;26.33;50.28
34586;BME280;20816;50.950;11.108;2022-07-29T07:32:09;98418.38;;;26.64;49.69
34586;BME280;20816;50.950;11.108;2022-07-29T07:34:36;98422.94;;;26.83;49.21
34586;BME280;20816;50.950;11.108;2022-07-29T07:37:05;98418.44;;;27.32;48.11
34586;BME280;20816;50.950;11.108;2022-07-29T07:39:31;98417.88;;;27.28;48.02
34586;BME280;20816;50.950;11.108;2022-07-29T07:41:58;98422.41;;;27.67;47.31
34586;BME280;20816;50.950;11.108;2022-07-29T07:44:25;98420.81;;;27.74;47.24
34586;BME280;20816;50.950;11.108;2022-07-29T07:46:52;98418.34;;;27.90;46.78
34586;BME280;20816;50.950;11.108;2022-07-29T07:49:20;98420.72;;;27.46;47.42
34586;BME280;20816;50.950;11.108;2022-07-29T07:51:46;98424.22;;;27.66;47.12
34586;BME280;20816;50.950;11.108;2022-07-29T07:54:16;98429.31;;;27.88;47.34
34586;BME280;20816;50.950;11.108;2022-07-29T07:56:46;98423.53;;;27.74;46.84
34586;BME280;20816;50.950;11.108;2022-07-29T07:59:18;98426.06;;;26.78;48.59
34586;BME280;20816;50.950;11.108;2022-07-29T08:01:45;98437.63;;;26.40;49.79
34586;BME280;20816;50.950;11.108;2022-07-29T08:04:21;98436.69;;;26.30;49.49
34586;BME280;20816;50.950;11.108;2022-07-29T08:06:53;98438.63;;;27.37;47.61
34586;BME280;20816;50.950;11.108;2022-07-29T08:09:24;98434.63;;;27.71;46.99
34586;BME280;20816;50.950;11.108;2022-07-29T08:11:56;98429.31;;;28.26;46.07
34586;BME280;20816;50.950;11.108;2022-07-29T08:14:23;98433.31;;;28.31;45.94
34586;BME280;20816;50.950;11.108;2022-07-29T08:16:50;98421.47;;;29.05;45.71
34586;BME280;20816;50.950;11.108;2022-07-29T08:19:17;98435.78;;;29.33;44.20
34586;BME280;20816;50.950;11.108;2022-07-29T08:21:44;98424.75;;;29.70;43.60
34586;BME280;20816;50.950;11.108;2022-07-29T08:24:11;98425.41;;;29.90;43.01
34586;BME280;20816;50.950;11.108;2022-07-29T08:26:56;98427.72;;;30.45;41.98
34586;BME280;20816;50.950;11.108;2022-07-29T08:29:23;98421.09;;;30.31;42.11
34586;BME280;20816;50.950;11.108;2022-07-29T08:31:49;98420.22;;;29.53;42.64
34586;BME280;20816;50.950;11.108;2022-07-29T08:34:16;98431.59;;;29.21;43.16
34586;BME280;20816;50.950;11.108;2022-07-29T08:36:43;98425.22;;;28.76;43.45
34586;BME280;20816;50.950;11.108;2022-07-29T08:39:15;98429.50;;;28.14;44.04
34586;BME280;20816;50.950;11.108;2022-07-29T08:41:41;98425.34;;;28.30;44.96
34586;BME280;20816;50.950;11.108;2022-07-29T08:44:22;98418.56;;;29.16;44.36
34586;BME280;20816;50.950;11.108;2022-07-29T08:46:56;98411.09;;;30.06;42.39
34586;BME280;20816;50.950;11.108;2022-07-29T08:49:23;98422.16;;;29.43;43.76
34586;BME280;20816;50.950;11.108;2022-07-29T08:51:50;98412.63;;;29.39;44.16
34586;BME280;20816;50.950;11.108;2022-07-29T08:54:17;98411.09;;;29.54;43.50
34586;BME280;20816;50.950;11.108;2022-07-29T08:56:48;98414.28;;;29.49;43.52
34586;BME280;20816;50.950;11.108;2022-07-29T08:59:19;98404.81;;;29.53;43.79
34586;BME280;20816;50.950;11.108;2022-07-29T09:01:48;98404.41;;;29.92;43.10
34586;BME280;20816;50.950;11.108;2022-07-29T09:04:20;98397.91;;;30.11;42.65
34586;BME280;20816;50.950;11.108;2022-07-29T09:06:50;98401.91;;;30.25;42.72
34586;BME280;20816;50.950;11.108;2022-07-29T09:09:17;98392.22;;;30.22;42.37
34586;BME280;20816;50.950;11.108;2022-07-29T09:11:44;98395.66;;;30.32;42.22
34586;BME280;20816;50.950;11.108;2022-07-29T09:14:12;98391.47;;;31.05;42.14
34586;BME280;20816;50.950;11.108;2022-07-29T09:16:50;98391.16;;;31.32;40.57
34586;BME280;20816;50.950;11.108;2022-07-29T09:19:21;98392.47;;;30.87;41.89
34586;BME280;20816;50.950;11.108;2022-07-29T09:21:47;98387.19;;;31.10;41.11
34586;BME280;20816;50.950;11.108;2022-07-29T09:27:01;98381.97;;;31.25;40.66
34586;BME280;20816;50.950;11.108;2022-07-29T09:29:28;98376.84;;;30.81;41.15
34586;BME280;20816;50.950;11.108;2022-07-29T09:32:06;98369.34;;;30.67;40.92
34586;BME280;20816;50.950;11.108;2022-07-29T09:34:34;98365.22;;;30.55;41.17
34586;BME280;20816;50.950;11.108;2022-07-29T09:37:01;98358.00;;;30.29;41.55
34586;BME280;20816;50.950;11.108;2022-07-29T09:39:37;98355.59;;;30.18;41.20
34586;BME280;20816;50.950;11.108;2022-07-29T09:42:11;98353.72;;;29.84;41.75
34586;BME280;20816;50.950;11.108;2022-07-29T09:47:12;98349.22;;;28.88;42.57
34586;BME280;20816;50.950;11.108;2022-07-29T09:49:53;98358.13;;;28.80;42.98
34586;BME280;20816;50.950;11.108;2022-07-29T09:52:20;98357.72;;;28.57;43.27
34586;BME280;20816;50.950;11.108;2022-07-29T09:54:47;98360.50;;;28.65;42.88
34586;BME280;20816;50.950;11.108;2022-07-29T09:57:26;98357.66;;;28.85;42.79
34586;BME280;20816;50.950;11.108;2022-07-29T10:00:14;98365.09;;;29.18;42.51
34586;BME280;20816;50.950;11.108;2022-07-29T10:02:43;98359.13;;;29.15;42.11
34586;BME280;20816;50.950;11.108;2022-07-29T10:05:24;98362.53;;;29.86;41.71
34586;BME280;20816;50.950;11.108;2022-07-29T10:07:56;98344.16;;;30.40;40.95
34586;BME280;20816;50.950;11.108;2022-07-29T10:10:28;98348.59;;;30.50;40.57
34586;BME280;20816;50.950;11.108;2022-07-29T10:12:57;98346.81;;;29.90;40.99
34586;BME280;20816;50.950;11.108;2022-07-29T10:15:33;98346.88;;;29.28;41.59
34586;BME280;20816;50.950;11.108;2022-07-29T10:18:03;98345.00;;;28.85;42.86
34586;BME280;20816;50.950;11.108;2022-07-29T10:20:30;98334.09;;;28.77;42.93
34586;BME280;20816;50.950;11.108;2022-07-29T10:22:57;98340.03;;;28.45;43.50
34586;BME280;20816;50.950;11.108;2022-07-29T10:25:24;98327.19;;;28.65;43.69
34586;BME280;20816;50.950;11.108;2022-07-29T10:27:51;98335.09;;;28.76;43.37
34586;BME280;20816;50.950;11.108;2022-07-29T10:30:20;98333.94;;;28.79;43.52
34586;BME280;20816;50.950;11.108;2022-07-29T10:33:08;98330.00;;;29.86;42.76
34586;BME280;20816;50.950;11.108;2022-07-29T10:35:57;98320.69;;;29.55;42.57
34586;BME280;20816;50.950;11.108;2022-07-29T10:44:23;98325.00;;;29.66;42.40
34586;BME280;20816;50.950;11.108;2022-07-29T10:46:52;98327.63;;;29.49;42.59
34586;BME280;20816;50.950;11.108;2022-07-29T10:49:27;98327.13;;;29.54;42.76
34586;BME280;20816;50.950;11.108;2022-07-29T11:02:43;98319.38;;;29.15;43.74
34586;BME280;20816;50.950;11.108;2022-07-29T11:05:13;98314.72;;;29.25;42.91
34586;BME280;20816;50.950;11.108;2022-07-29T11:10:53;98310.97;;;28.65;43.82
34586;BME280;20816;50.950;11.108;2022-07-29T11:16:14;98313.13;;;28.16;44.35
34586;BME280;20816;50.950;11.108;2022-07-29T11:21:44;98314.69;;;28.18;45.12
34586;BME280;20816;50.950;11.108;2022-07-29T11:24:30;98319.69;;;28.41;44.97
34586;BME280;20816;50.950;11.108;2022-07-29T11:27:11;98315.53;;;28.46;44.15
34586;BME280;20816;50.950;11.108;2022-07-29T11:29:56;98319.69;;;28.41;44.72
34586;BME280;20816;50.950;11.108;2022-07-29T11:32:36;98316.38;;;28.47;44.95
34586;BME280;20816;50.950;11.108;2022-07-29T11:35:20;98315.75;;;28.35;45.02
34586;BME280;20816;50.950;11.108;2022-07-29T11:41:22;98308.38;;;28.28;44.97
34586;BME280;20816;50.950;11.108;2022-07-29T11:43:53;98311.22;;;28.26;44.65
34586;BME280;20816;50.950;11.108;2022-07-29T11:46:42;98300.06;;;28.39;45.15
34586;BME280;20816;50.950;11.108;2022-07-29T11:49:09;98305.09;;;28.24;45.31
34586;BME280;20816;50.950;11.108;2022-07-29T11:51:40;98298.97;;;28.32;44.84
34586;BME280;20816;50.950;11.108;2022-07-29T11:54:26;98303.88;;;28.18;44.77
34586;BME280;20816;50.950;11.108;2022-07-29T11:56:57;98294.44;;;28.23;45.05
34586;BME280;20816;50.950;11.108;2022-07-29T11:59:25;98292.44;;;28.25;45.40
34586;BME280;20816;50.950;11.108;2022-07-29T12:02:00;98287.66;;;28.18;45.28
34586;BME280;20816;50.950;11.108;2022-07-29T12:04:54;98276.19;;;28.34;45.55
34586;BME280;20816;50.950;11.108;2022-07-29T12:07:31;98272.13;;;28.20;45.39
34586;BME280;20816;50.950;11.108;2022-07-29T12:10:01;98280.25;;;28.20;45.10
34586;BME280;20816;50.950;11.108;2022-07-29T12:12:28;98276.34;;;28.05;46.20
34586;BME280;20816;50.950;11.108;2022-07-29T12:14:55;98277.66;;;28.01;45.73
34586;BME280;20816;50.950;11.108;2022-07-29T12:19:57;98268.06;;;28.34;45.55
34586;BME280;20816;50.950;11.108;2022-07-29T12:22:39;98284.09;;;28.18;45.29
34586;BME280;20816;50.950;11.108;2022-07-29T12:25:10;98280.53;;;28.17;45.60
34586;BME280;20816;50.950;11.108;2022-07-29T12:28:03;98272.13;;;28.20;45.56
34586;BME280;20816;50.950;11.108;2022-07-29T12:30:35;98276.41;;;28.41;45.62
34586;BME280;20816;50.950;11.108;2022-07-29T12:35:42;98263.47;;;28.44;45.41
34586;BME280;20816;50.950;11.108;2022-07-29T12:38:20;98262.63;;;28.44;45.21
34586;BME280;20816;50.950;11.108;2022-07-29T12:40:48;98262.88;;;28.59;45.36
34586;BME280;20816;50.950;11.108;2022-07-29T12:43:18;98268.63;;;28.56;45.68
34586;BME280;20816;50.950;11.108;2022-07-29T12:45:48;98269.78;;;28.53;45.37
34586;BME280;20816;50.950;11.108;2022-07-29T12:48:16;98265.47;;;28.60;45.27
34586;BME280;20816;50.950;11.108;2022-07-29T12:51:00;98263.56;;;28.25;45.51
34586;BME280;20816;50.950;11.108;2022-07-29T12:53:28;98266.03;;;28.18;45.77
34586;BME280;20816;50.950;11.108;2022-07-29T12:55:56;98266.09;;;28.09;46.03
34586;BME280;20816;50.950;11.108;2022-07-29T13:03:46;98264.81;;;28.66;45.32
34586;BME280;20816;50.950;11.108;2022-07-29T13:06:42;98260.38;;;28.83;44.63
34586;BME280;20816;50.950;11.108;2022-07-29T13:09:18;98258.97;;;29.41;44.12
34586;BME280;20816;50.950;11.108;2022-07-29T13:11:50;98254.53;;;30.00;43.72
34586;BME280;20816;50.950;11.108;2022-07-29T13:14:42;98258.00;;;30.26;42.75
34586;BME280;20816;50.950;11.108;2022-07-29T13:17:20;98261.63;;;30.92;42.48
34586;BME280;20816;50.950;11.108;2022-07-29T13:20:04;98263.50;;;31.00;41.78
34586;BME280;20816;50.950;11.108;2022-07-29T13:22:34;98258.53;;;30.54;42.76
34586;BME280;20816;50.950;11.108;2022-07-29T13:25:01;98247.88;;;30.93;41.84
34586;BME280;20816;50.950;11.108;2022-07-29T13:27:31;98258.72;;;31.34;41.48
34586;BME280;20816;50.950;11.108;2022-07-29T13:30:05;98256.03;;;31.26;41.66
34586;BME280;20816;50.950;11.108;2022-07-29T13:32:32;98255.50;;;31.31;41.93
34586;BME280;20816;50.950;11.108;2022-07-29T13:35:07;98249.41;;;31.29;41.33
34586;BME280;20816;50.950;11.108;2022-07-29T13:37:35;98233.25;;;31.35;41.65
34586;BME280;20816;50.950;11.108;2022-07-29T13:40:09;98237.31;;;31.47;41.27
34586;BME280;20816;50.950;11.108;2022-07-29T13:42:36;98229.53;;;31.36;41.51
34586;BME280;20816;50.950;11.108;2022-07-29T13:45:03;98227.84;;;31.27;41.40
34586;BME280;20816;50.950;11.108;2022-07-29T13:47:30;98239.06;;;31.08;41.43
34586;BME280;20816;50.950;11.108;2022-07-29T13:50:02;98234.81;;;31.21;41.29
34586;BME280;20816;50.950;11.108;2022-07-29T13:52:31;98226.19;;;30.85;41.72
34586;BME280;20816;50.950;11.108;2022-07-29T13:54:58;98230.28;;;30.73;41.97
34586;BME280;20816;50.950;11.108;2022-07-29T13:57:25;98227.00;;;30.37;42.19
34586;BME280;20816;50.950;11.108;2022-07-29T13:59:52;98224.53;;;30.01;43.11
34586;BME280;20816;50.950;11.108;2022-07-29T14:02:20;98226.41;;;30.01;43.13